Time;durP1;ratioP1;P1;durP2;ratioP2;P2;SDS_P1;SDS_P2;PMS_P1;PMS_P2;Temp;Humidity;BMP_temperature;BMP_pressure;BME280_temperature;BME280_humidity;BME280_pressure;Samples;Min_cycle;Max_cycle;Signal;HPM_P1;HPM_P2
2023/08/25 00:00:57;;;;;;;9.20;7.28;;;27.70;99.90;;;;;;6150908;23;20061;-74
2023/08/25 00:03:23;;;;;;;8.50;7.05;;;27.70;99.90;;;;;;6125033;23;20029;-75
2023/08/25 00:05:53;;;;;;;8.50;7.00;;;27.60;99.90;;;;;;6151327;23;20001;-75
2023/08/25 00:08:19;;;;;;;10.70;7.20;;;27.60;99.90;;;;;;6125252;23;20048;-75
2023/08/25 00:10:44;;;;;;;9.50;7.10;;;27.60;99.90;;;;;;6151368;23;20089;-75
2023/08/25 00:13:10;;;;;;;8.68;7.00;;;27.60;99.90;;;;;;6151466;23;20055;-75
2023/08/25 00:15:36;;;;;;;10.15;7.95;;;27.60;99.90;;;;;;6151269;23;20001;-75
2023/08/25 00:18:02;;;;;;;8.40;7.15;;;27.50;99.90;;;;;;6152984;23;20341;-74
2023/08/25 00:20:28;;;;;;;8.48;7.68;;;27.50;99.90;;;;;;6151323;23;20071;-74
2023/08/25 00:22:54;;;;;;;11.48;6.95;;;27.60;99.90;;;;;;6152827;23;20002;-74
2023/08/25 00:25:20;;;;;;;8.93;7.75;;;27.50;99.90;;;;;;6152775;23;20501;-74
2023/08/25 00:27:45;;;;;;;10.20;7.50;;;27.50;99.90;;;;;;6153236;23;19997;-74
2023/08/25 00:30:12;;;;;;;8.18;7.38;;;27.50;99.90;;;;;;6153026;23;20009;-75
2023/08/25 00:32:38;;;;;;;16.23;7.65;;;27.40;99.90;;;;;;6153310;23;20001;-74
2023/08/25 00:35:05;;;;;;;9.45;7.65;;;27.50;99.90;;;;;;6151726;23;20006;-74
2023/08/25 00:37:30;;;;;;;8.57;7.53;;;27.50;99.90;;;;;;6151825;23;20005;-74
2023/08/25 00:39:56;;;;;;;9.73;7.18;;;27.50;99.90;;;;;;6150924;23;20444;-74
2023/08/25 00:42:22;;;;;;;10.20;7.20;;;27.50;99.90;;;;;;6151206;23;20069;-75
2023/08/25 00:44:47;;;;;;;8.30;7.45;;;27.50;99.90;;;;;;6150691;23;20008;-75
2023/08/25 00:47:13;;;;;;;8.57;7.75;;;27.50;99.90;;;;;;6150968;23;20029;-74
2023/08/25 00:49:40;;;;;;;8.10;7.45;;;27.40;99.90;;;;;;6151017;23;20002;-74
2023/08/25 00:52:06;;;;;;;8.02;7.20;;;27.40;99.90;;;;;;6150847;23;20006;-75
2023/08/25 00:54:34;;;;;;;10.85;7.50;;;27.40;99.90;;;;;;6150867;23;20014;-75
2023/08/25 00:57:02;;;;;;;8.35;7.60;;;27.40;99.90;;;;;;6151058;23;20437;-75
2023/08/25 00:59:29;;;;;;;8.52;7.70;;;27.40;99.90;;;;;;6149040;23;20016;-75
2023/08/25 01:01:56;;;;;;;10.70;7.65;;;27.40;99.90;;;;;;6124817;23;20001;-74
2023/08/25 01:04:22;;;;;;;9.77;8.20;;;27.40;99.90;;;;;;6150814;23;20005;-74
2023/08/25 01:06:48;;;;;;;8.82;7.93;;;27.40;99.90;;;;;;6152827;23;19990;-75
2023/08/25 01:09:14;;;;;;;11.05;7.80;;;27.30;99.90;;;;;;6154732;23;20009;-75
2023/08/25 01:11:55;;;;;;;11.35;7.90;;;27.40;99.90;;;;;;6155139;23;20021;-75
2023/08/25 01:14:42;;;;;;;8.10;7.40;;;27.40;99.90;;;;;;6155061;23;20005;-75
2023/08/25 01:17:23;;;;;;;8.95;6.90;;;27.30;99.90;;;;;;6155205;23;20457;-75
2023/08/25 01:20:00;;;;;;;12.57;7.40;;;27.40;99.90;;;;;;6153299;23;20005;-74
2023/08/25 01:23:03;;;;;;;8.48;7.65;;;27.40;99.90;;;;;;6153489;23;20389;-74
2023/08/25 01:25:30;;;;;;;10.52;7.72;;;27.30;99.90;;;;;;6154706;23;20434;-74
2023/08/25 01:27:59;;;;;;;7.38;6.72;;;27.40;99.90;;;;;;6155070;23;20001;-75
2023/08/25 01:30:34;;;;;;;7.57;6.88;;;27.40;99.90;;;;;;6154699;23;20399;-75
2023/08/25 01:33:03;;;;;;;8.95;8.15;;;27.40;99.90;;;;;;6155205;23;20081;-74
2023/08/25 01:35:47;;;;;;;7.97;7.28;;;27.40;99.90;;;;;;6154780;23;20437;-75
2023/08/25 01:38:21;;;;;;;8.38;7.55;;;27.40;99.90;;;;;;6154851;23;20493;-74
2023/08/25 01:41:05;;;;;;;9.25;7.85;;;27.40;99.90;;;;;;6154729;23;20006;-75
2023/08/25 01:43:37;;;;;;;11.35;7.35;;;27.30;99.90;;;;;;6154988;23;20406;-74
2023/08/25 01:46:02;;;;;;;8.70;7.50;;;27.30;99.90;;;;;;6154597;23;20447;-74
2023/08/25 01:48:31;;;;;;;8.07;7.38;;;27.20;99.90;;;;;;6154771;23;20052;-74
2023/08/25 01:50:57;;;;;;;8.85;6.53;;;27.30;99.90;;;;;;6154656;23;20500;-74
2023/08/25 01:53:23;;;;;;;9.30;8.13;;;27.30;99.90;;;;;;6153045;23;20040;-74
2023/08/25 01:55:49;;;;;;;12.05;7.05;;;27.30;99.90;;;;;;6154612;23;20012;-74
2023/08/25 01:58:14;;;;;;;7.97;7.18;;;27.30;99.90;;;;;;6154647;23;20025;-74
2023/08/25 02:00:40;;;;;;;8.15;7.50;;;27.20;99.90;;;;;;6154359;23;20418;-74
2023/08/25 02:03:06;;;;;;;10.00;7.43;;;27.30;99.90;;;;;;6154607;23;20055;-74
2023/08/25 02:05:32;;;;;;;9.48;7.18;;;27.20;99.90;;;;;;6154509;23;20008;-75
2023/08/25 02:07:57;;;;;;;9.18;8.02;;;27.20;99.90;;;;;;6153123;23;20430;-74
2023/08/25 02:10:23;;;;;;;8.05;7.45;;;27.20;99.90;;;;;;6154642;23;20002;-74
2023/08/25 02:12:49;;;;;;;8.68;7.78;;;27.20;99.90;;;;;;6154625;23;20010;-74
2023/08/25 02:15:15;;;;;;;8.13;6.93;;;27.20;99.90;;;;;;6154402;23;20015;-75
2023/08/25 02:17:40;;;;;;;10.23;8.40;;;27.10;99.90;;;;;;6154393;23;20036;-74
2023/08/25 02:20:07;;;;;;;8.23;7.38;;;27.10;99.90;;;;;;6154265;23;20136;-74
2023/08/25 02:22:33;;;;;;;8.35;7.55;;;27.00;99.90;;;;;;6128117;23;20469;-74
2023/08/25 02:24:59;;;;;;;9.05;7.47;;;27.10;99.90;;;;;;6152777;23;20001;-74
2023/08/25 02:27:25;;;;;;;8.25;7.45;;;27.00;99.90;;;;;;6152963;23;20044;-74
2023/08/25 02:29:52;;;;;;;8.75;7.60;;;27.00;99.90;;;;;;6154116;23;20002;-74
2023/08/25 02:32:17;;;;;;;13.93;8.23;;;27.00;99.90;;;;;;6154224;23;20009;-74
2023/08/25 02:34:43;;;;;;;8.38;7.35;;;27.00;99.90;;;;;;6152563;23;20001;-74
2023/08/25 02:37:08;;;;;;;8.77;7.97;;;27.00;99.90;;;;;;6152642;23;20006;-74
2023/08/25 02:39:34;;;;;;;8.65;7.75;;;27.00;99.90;;;;;;6154186;23;20008;-74
2023/08/25 02:42:00;;;;;;;8.98;7.93;;;27.00;99.90;;;;;;6154244;23;20001;-74
2023/08/25 02:44:25;;;;;;;9.80;7.38;;;27.00;99.90;;;;;;6154250;23;20075;-74
2023/08/25 02:46:51;;;;;;;10.25;7.97;;;27.00;99.90;;;;;;6152421;23;20084;-75
2023/08/25 02:49:17;;;;;;;10.80;7.07;;;27.00;99.90;;;;;;6154333;23;20008;-74
2023/08/25 02:51:46;;;;;;;10.38;7.05;;;27.00;99.90;;;;;;6154142;23;20033;-74
2023/08/25 02:54:11;;;;;;;8.30;7.60;;;27.00;99.90;;;;;;6153971;23;20025;-75
2023/08/25 02:56:37;;;;;;;9.57;7.68;;;26.90;99.90;;;;;;6154105;23;20005;-74
2023/08/25 02:59:03;;;;;;;10.98;7.53;;;27.00;99.90;;;;;;6154289;23;20005;-74
2023/08/25 03:01:28;;;;;;;9.55;7.72;;;27.00;99.90;;;;;;6153566;23;20433;-74
2023/08/25 03:03:58;;;;;;;8.23;7.50;;;27.00;99.90;;;;;;6154279;23;20418;-74
2023/08/25 03:06:24;;;;;;;8.95;7.43;;;27.00;99.90;;;;;;6153918;23;20002;-74
2023/08/25 03:08:49;;;;;;;8.00;7.18;;;27.00;99.90;;;;;;6154288;23;20461;-74
2023/08/25 03:11:15;;;;;;;7.78;6.97;;;27.00;99.90;;;;;;6153785;23;20060;-74
2023/08/25 03:13:41;;;;;;;10.80;7.90;;;26.90;99.90;;;;;;6152385;23;20076;-74
2023/08/25 03:16:07;;;;;;;10.60;7.22;;;26.90;99.90;;;;;;6153603;23;20492;-74
2023/08/25 03:18:33;;;;;;;10.65;7.90;;;26.90;99.90;;;;;;6154103;23;20009;-74
2023/08/25 03:20:59;;;;;;;13.20;7.88;;;27.00;99.90;;;;;;6152198;23;20429;-74
2023/08/25 03:23:25;;;;;;;9.60;7.55;;;27.00;99.90;;;;;;6152392;23;20012;-74
2023/08/25 03:25:51;;;;;;;8.57;7.78;;;27.00;99.90;;;;;;6152088;23;20029;-75
2023/08/25 03:28:16;;;;;;;9.57;8.40;;;27.00;99.90;;;;;;6152190;23;20374;-74
2023/08/25 03:30:42;;;;;;;8.77;7.95;;;27.10;99.90;;;;;;6127281;23;20009;-74
2023/08/25 03:33:11;;;;;;;10.63;8.30;;;27.10;99.90;;;;;;6153818;23;20492;-75
2023/08/25 03:35:37;;;;;;;11.10;7.80;;;27.10;99.90;;;;;;6153491;23;20004;-75
2023/08/25 03:38:03;;;;;;;8.02;7.43;;;27.10;99.90;;;;;;6154015;23;20005;-74
2023/08/25 03:40:28;;;;;;;9.50;8.25;;;27.10;99.90;;;;;;6127355;23;20010;-74
2023/08/25 03:42:54;;;;;;;9.07;7.22;;;27.10;99.90;;;;;;6153780;23;20009;-75
2023/08/25 03:45:21;;;;;;;9.63;8.38;;;27.00;99.90;;;;;;6153207;23;20002;-74
2023/08/25 03:47:46;;;;;;;9.13;7.55;;;27.00;99.90;;;;;;6153867;23;20403;-74
2023/08/25 03:50:12;;;;;;;10.00;8.02;;;27.10;99.90;;;;;;6153458;23;20001;-74
2023/08/25 03:52:38;;;;;;;10.45;7.47;;;27.00;99.90;;;;;;6153540;23;20025;-74
2023/08/25 03:55:04;;;;;;;9.77;7.72;;;27.00;99.90;;;;;;6153491;23;20181;-74
2023/08/25 03:57:30;;;;;;;11.75;7.30;;;27.00;99.90;;;;;;6153621;23;20254;-74
2023/08/25 03:59:55;;;;;;;12.10;8.77;;;26.90;99.90;;;;;;6153110;23;20006;-74
2023/08/25 04:02:21;;;;;;;12.07;7.90;;;26.90;99.90;;;;;;6153393;23;20032;-74
2023/08/25 04:04:47;;;;;;;9.18;7.85;;;26.90;99.90;;;;;;6151626;23;20097;-74
2023/08/25 04:07:15;;;;;;;12.27;8.35;;;26.90;99.90;;;;;;6152797;23;19993;-74
2023/08/25 04:09:41;;;;;;;10.82;7.68;;;26.80;99.90;;;;;;6150973;23;20450;-75
2023/08/25 04:12:07;;;;;;;11.13;7.63;;;26.90;99.90;;;;;;6151115;23;20008;-74
2023/08/25 04:14:33;;;;;;;9.70;7.45;;;26.90;99.90;;;;;;6150789;23;20060;-74
2023/08/25 04:16:59;;;;;;;12.48;8.55;;;26.90;99.90;;;;;;6149460;23;20314;-74
2023/08/25 04:19:25;;;;;;;10.52;8.07;;;26.90;99.90;;;;;;6150988;23;20001;-74
2023/08/25 04:21:50;;;;;;;11.45;7.65;;;26.90;99.90;;;;;;6151616;23;20005;-74
2023/08/25 04:24:17;;;;;;;11.70;7.82;;;26.80;99.90;;;;;;6151047;23;20030;-74
2023/08/25 04:26:42;;;;;;;11.45;7.60;;;26.80;99.90;;;;;;6150952;23;20465;-74
2023/08/25 04:29:09;;;;;;;9.57;7.85;;;26.90;99.90;;;;;;6151236;23;20005;-75
2023/08/25 04:31:36;;;;;;;12.18;7.35;;;26.80;99.90;;;;;;6150754;23;20382;-74
2023/08/25 04:34:05;;;;;;;9.27;7.72;;;26.80;99.90;;;;;;6150973;23;20005;-74
2023/08/25 04:36:36;;;;;;;8.75;7.90;;;26.90;99.90;;;;;;6124755;23;20326;-74
2023/08/25 04:39:02;;;;;;;12.65;7.20;;;26.80;99.90;;;;;;6127189;23;20566;-74
2023/08/25 04:41:28;;;;;;;10.40;7.85;;;26.80;99.90;;;;;;6152978;23;20061;-74
2023/08/25 04:43:56;;;;;;;11.45;8.52;;;26.80;99.90;;;;;;6154608;23;20058;-74
2023/08/25 04:46:22;;;;;;;8.20;7.38;;;26.80;99.90;;;;;;6153444;23;20005;-74
2023/08/25 04:48:48;;;;;;;10.73;7.10;;;26.80;99.90;;;;;;6155460;23;20459;-74
2023/08/25 04:51:13;;;;;;;11.23;7.97;;;26.80;99.90;;;;;;6154995;23;20006;-74
2023/08/25 04:53:39;;;;;;;11.23;8.02;;;26.80;99.90;;;;;;6155207;23;20088;-74
2023/08/25 04:56:05;;;;;;;10.65;7.30;;;26.80;99.90;;;;;;6129179;23;20016;-74
2023/08/25 04:58:31;;;;;;;9.23;8.38;;;26.90;99.90;;;;;;6153676;23;20009;-74
2023/08/25 05:00:57;;;;;;;14.43;8.40;;;26.90;99.90;;;;;;6153014;23;20005;-74
2023/08/25 05:03:22;;;;;;;10.13;7.85;;;26.90;99.90;;;;;;6155380;23;20422;-74
2023/08/25 05:05:48;;;;;;;11.18;8.43;;;26.90;99.90;;;;;;6155050;23;20138;-74
2023/08/25 05:08:14;;;;;;;11.85;8.23;;;27.00;99.90;;;;;;6155362;23;20008;-74
2023/08/25 05:10:39;;;;;;;13.70;7.93;;;27.00;99.90;;;;;;6154904;23;20005;-74
2023/08/25 05:13:05;;;;;;;12.52;8.25;;;27.00;99.90;;;;;;6155293;23;20132;-74
2023/08/25 05:15:32;;;;;;;11.52;8.20;;;27.00;99.90;;;;;;6154863;23;20312;-74
2023/08/25 05:17:57;;;;;;;12.38;7.47;;;27.00;99.90;;;;;;6155377;23;20002;-74
2023/08/25 05:20:23;;;;;;;14.60;7.80;;;27.00;99.90;;;;;;6154846;23;20009;-74
2023/08/25 05:22:50;;;;;;;10.07;7.82;;;27.00;99.90;;;;;;6153479;23;20080;-74
2023/08/25 05:25:17;;;;;;;14.60;8.45;;;27.10;99.90;;;;;;6128679;23;20489;-74
2023/08/25 05:27:43;;;;;;;16.48;8.73;;;27.10;99.90;;;;;;6155164;23;20001;-74
2023/08/25 05:30:09;;;;;;;11.38;8.98;;;27.10;99.90;;;;;;6153071;23;20020;-74
2023/08/25 05:32:34;;;;;;;14.85;8.57;;;27.10;99.90;;;;;;6154942;23;20082;-74
2023/08/25 05:35:00;;;;;;;14.43;9.32;;;27.10;99.90;;;;;;6154633;23;20009;-74
2023/08/25 05:37:26;;;;;;;9.52;8.52;;;27.10;99.90;;;;;;6153452;23;20211;-74
2023/08/25 05:39:52;;;;;;;9.48;8.20;;;27.10;99.90;;;;;;6153113;23;20338;-74
2023/08/25 05:42:18;;;;;;;9.57;8.52;;;27.10;99.90;;;;;;6154933;23;20005;-74
2023/08/25 05:44:43;;;;;;;12.43;8.45;;;27.10;99.90;;;;;;6154713;23;20001;-74
2023/08/25 05:47:09;;;;;;;10.68;8.73;;;27.20;99.90;;;;;;6153296;23;20005;-74
2023/08/25 05:49:35;;;;;;;9.52;8.63;;;27.20;99.90;;;;;;6154731;23;20060;-74
2023/08/25 05:52:00;;;;;;;10.48;8.57;;;27.20;99.90;;;;;;6154504;23;20456;-74
2023/08/25 05:54:26;;;;;;;15.07;8.82;;;27.20;99.90;;;;;;6154436;23;20068;-74
2023/08/25 05:56:53;;;;;;;11.25;8.98;;;27.20;99.90;;;;;;6154809;23;20009;-74
2023/08/25 05:59:19;;;;;;;12.07;9.18;;;27.20;99.90;;;;;;6154575;23;20060;-74
2023/08/25 06:01:45;;;;;;;12.15;9.55;;;27.20;99.90;;;;;;6154280;23;20446;-74
2023/08/25 06:04:11;;;;;;;15.48;9.13;;;27.30;99.90;;;;;;6153015;23;20337;-74
2023/08/25 06:06:38;;;;;;;16.42;9.45;;;27.20;99.90;;;;;;6154493;23;19997;-74
2023/08/25 06:09:05;;;;;;;13.10;9.25;;;27.20;99.90;;;;;;6154791;23;20338;-74
2023/08/25 06:11:30;;;;;;;10.80;9.15;;;27.20;99.90;;;;;;6127968;23;20442;-74
2023/08/25 06:13:56;;;;;;;12.13;8.70;;;27.30;99.90;;;;;;6154824;23;20041;-74
2023/08/25 06:16:23;;;;;;;15.15;8.85;;;27.30;99.90;;;;;;6154064;23;20442;-74
2023/08/25 06:18:48;;;;;;;13.48;9.35;;;27.30;99.90;;;;;;6154496;23;20445;-74
2023/08/25 06:21:14;;;;;;;12.63;8.93;;;27.40;99.90;;;;;;6154044;23;20028;-74
2023/08/25 06:23:40;;;;;;;10.63;9.00;;;27.30;99.90;;;;;;6153143;23;20422;-74
2023/08/25 06:26:06;;;;;;;12.63;8.50;;;27.40;99.90;;;;;;6154320;23;20377;-74
2023/08/25 06:28:33;;;;;;;16.85;9.30;;;27.40;99.90;;;;;;6154443;23;20009;-74
2023/08/25 06:30:59;;;;;;;11.05;8.52;;;27.50;99.90;;;;;;6153803;23;20025;-73
2023/08/25 06:33:29;;;;;;;10.50;9.00;;;27.50;99.90;;;;;;6152756;23;20437;-74
2023/08/25 06:35:58;;;;;;;11.48;9.00;;;27.50;99.90;;;;;;6151909;23;20029;-74
2023/08/25 06:38:24;;;;;;;10.63;9.18;;;27.50;99.90;;;;;;6155674;23;20033;-74
2023/08/25 06:40:51;;;;;;;15.15;8.80;;;27.60;99.90;;;;;;6153836;23;20005;-75
2023/08/25 06:43:16;;;;;;;12.10;8.95;;;27.60;99.90;;;;;;6155822;23;20423;-74
2023/08/25 06:45:42;;;;;;;13.82;8.93;;;27.70;99.90;;;;;;6155071;23;20005;-74
2023/08/25 06:48:08;;;;;;;14.18;9.07;;;27.70;99.90;;;;;;6155793;23;20001;-74
2023/08/25 06:50:34;;;;;;;12.77;8.95;;;27.70;99.90;;;;;;6153320;23;20438;-74
2023/08/25 06:52:59;;;;;;;10.98;9.00;;;27.80;99.90;;;;;;6153848;23;20017;-74
2023/08/25 06:55:25;;;;;;;15.45;9.23;;;27.80;99.90;;;;;;6154932;23;20476;-74
2023/08/25 06:57:51;;;;;;;15.32;9.93;;;27.90;99.90;;;;;;6155449;23;20001;-74
2023/08/25 07:00:20;;;;;;;10.48;9.18;;;27.90;99.90;;;;;;6153352;23;20065;-74
2023/08/25 07:02:46;;;;;;;9.85;8.95;;;27.90;99.90;;;;;;6155479;23;20051;-74
2023/08/25 07:05:13;;;;;;;11.90;9.13;;;28.00;99.90;;;;;;6154602;23;19998;-74
2023/08/25 07:07:39;;;;;;;10.45;9.07;;;28.00;99.90;;;;;;6155426;23;20073;-74
2023/08/25 07:10:05;;;;;;;12.77;9.20;;;28.00;99.90;;;;;;6155164;23;20029;-74
2023/08/25 07:12:31;;;;;;;14.65;9.48;;;28.10;99.90;;;;;;6155037;23;20009;-74
2023/08/25 07:14:57;;;;;;;11.73;8.98;;;28.10;99.90;;;;;;6155215;23;20430;-74
2023/08/25 07:17:22;;;;;;;12.68;8.50;;;28.20;99.90;;;;;;6154917;23;20052;-74
2023/08/25 07:19:48;;;;;;;9.93;8.93;;;28.20;99.90;;;;;;6153212;23;20005;-75
2023/08/25 07:22:14;;;;;;;15.15;9.52;;;28.20;99.90;;;;;;6155286;23;20008;-74
2023/08/25 07:24:43;;;;;;;12.73;8.75;;;28.20;99.90;;;;;;6154969;23;20060;-74
2023/08/25 07:27:09;;;;;;;9.60;8.55;;;28.30;99.90;;;;;;6153771;23;20032;-74
2023/08/25 07:29:37;;;;;;;18.98;9.43;;;28.30;99.90;;;;;;6155005;23;20438;-74
2023/08/25 07:32:04;;;;;;;16.10;9.18;;;28.40;99.90;;;;;;6154616;23;20097;-74
2023/08/25 07:34:29;;;;;;;13.98;10.25;;;28.30;99.90;;;;;;6155123;23;20005;-75
2023/08/25 07:36:55;;;;;;;9.65;8.35;;;28.40;99.90;;;;;;6155066;23;20500;-74
2023/08/25 07:39:21;;;;;;;18.80;9.23;;;28.50;99.90;;;;;;6128713;23;20013;-74
2023/08/25 07:41:46;;;;;;;12.88;9.35;;;28.50;99.90;;;;;;6154830;23;20002;-74
2023/08/25 07:44:12;;;;;;;9.80;8.90;;;28.50;99.90;;;;;;6154920;23;20009;-74
2023/08/25 07:46:39;;;;;;;10.70;8.68;;;28.50;99.90;;;;;;6152983;23;20461;-74
2023/08/25 07:49:08;;;;;;;10.43;8.68;;;28.50;99.90;;;;;;6154658;23;20001;-74
2023/08/25 07:51:35;;;;;;;12.68;9.65;;;28.50;99.90;;;;;;6128336;23;20009;-74
2023/08/25 07:54:01;;;;;;;16.30;10.00;;;28.60;99.90;;;;;;6128550;23;20437;-74
2023/08/25 07:56:27;;;;;;;10.80;9.05;;;28.60;99.90;;;;;;6128060;23;20088;-74
2023/08/25 07:58:53;;;;;;;9.73;8.82;;;28.70;99.90;;;;;;6154456;23;20068;-74
2023/08/25 08:01:19;;;;;;;11.27;9.05;;;28.70;99.90;;;;;;6152103;23;20005;-74
2023/08/25 08:03:45;;;;;;;10.95;9.30;;;28.70;99.90;;;;;;6128566;23;20442;-74
2023/08/25 08:06:11;;;;;;;10.20;9.30;;;28.70;99.90;;;;;;6154357;23;19998;-74
2023/08/25 08:08:37;;;;;;;9.27;8.48;;;28.70;99.90;;;;;;6153100;23;20453;-74
2023/08/25 08:11:03;;;;;;;12.52;8.35;;;28.80;99.90;;;;;;6154324;23;20017;-74
2023/08/25 08:13:29;;;;;;;11.93;8.38;;;28.90;99.90;;;;;;6154457;23;20002;-74
2023/08/25 08:15:55;;;;;;;9.95;8.32;;;29.00;99.90;;;;;;6127682;23;20438;-74
2023/08/25 08:18:21;;;;;;;14.55;8.52;;;29.10;99.90;;;;;;6153734;23;20008;-74
2023/08/25 08:20:48;;;;;;;10.73;8.48;;;29.10;99.90;;;;;;6127560;23;20433;-74
2023/08/25 08:23:14;;;;;;;10.15;8.23;;;29.10;99.90;;;;;;6152661;23;20001;-74
2023/08/25 08:25:40;;;;;;;15.45;7.55;;;29.20;99.90;;;;;;6153301;23;20005;-74
2023/08/25 08:28:08;;;;;;;11.23;7.95;;;29.20;99.90;;;;;;6154327;23;19998;-74
2023/08/25 08:30:34;;;;;;;8.30;7.55;;;29.20;99.90;;;;;;6153478;23;20016;-74
2023/08/25 08:33:00;;;;;;;13.77;6.78;;;29.30;99.90;;;;;;6154657;23;20056;-74
2023/08/25 08:35:26;;;;;;;13.05;7.90;;;29.40;99.90;;;;;;6154360;23;20009;-73
2023/08/25 08:37:51;;;;;;;8.45;7.60;;;29.50;99.90;;;;;;6152809;23;20002;-74
2023/08/25 08:40:17;;;;;;;8.80;7.78;;;29.50;99.90;;;;;;6151409;23;20009;-74
2023/08/25 08:42:46;;;;;;;11.80;7.93;;;29.30;99.90;;;;;;6150007;23;20009;-74
2023/08/25 08:45:11;;;;;;;8.23;7.43;;;29.30;99.90;;;;;;6149895;23;20005;-74
2023/08/25 08:47:38;;;;;;;13.88;7.78;;;29.40;99.90;;;;;;6150332;23;20002;-74
2023/08/25 08:50:07;;;;;;;10.27;7.57;;;29.50;99.90;;;;;;6122752;23;20342;-74
2023/08/25 08:52:34;;;;;;;17.75;7.93;;;29.60;99.90;;;;;;6148012;23;20013;-74
2023/08/25 08:55:00;;;;;;;11.48;7.80;;;29.60;99.90;;;;;;6148052;23;20644;-74
2023/08/25 08:57:26;;;;;;;8.40;7.13;;;29.60;99.90;;;;;;6147723;23;20076;-74
2023/08/25 08:59:53;;;;;;;14.40;8.10;;;29.70;99.90;;;;;;6126000;23;20019;-74
2023/08/25 09:02:22;;;;;;;11.77;7.45;;;29.60;99.90;;;;;;6154027;23;20350;-75
2023/08/25 09:04:52;;;;;;;14.00;7.63;;;29.70;99.90;;;;;;6152542;23;20426;-74
2023/08/25 09:07:20;;;;;;;11.73;7.30;;;29.80;99.90;;;;;;6128030;23;20001;-74
2023/08/25 09:09:46;;;;;;;8.57;7.40;;;29.90;99.90;;;;;;6153263;23;20005;-75
2023/08/25 09:12:15;;;;;;;12.18;7.82;;;30.00;99.90;;;;;;6126840;23;20519;-75
2023/08/25 09:14:42;;;;;;;14.75;7.70;;;30.00;99.90;;;;;;6152934;23;20097;-75
2023/08/25 09:17:13;;;;;;;15.05;7.22;;;30.00;99.90;;;;;;6145613;23;20409;-74
2023/08/25 09:19:38;;;;;;;12.00;7.43;;;30.00;99.90;;;;;;6148250;23;20475;-75
2023/08/25 09:22:05;;;;;;;10.18;7.60;;;30.00;99.90;;;;;;6147581;23;20006;-75
2023/08/25 09:24:33;;;;;;;9.35;7.57;;;30.00;99.90;;;;;;6147747;23;20012;-75
2023/08/25 09:26:59;;;;;;;11.02;7.15;;;30.00;99.90;;;;;;6122547;23;20103;-75
2023/08/25 09:29:25;;;;;;;10.50;6.90;;;30.10;99.90;;;;;;6123013;23;20454;-76
2023/08/25 09:31:50;;;;;;;11.52;7.25;;;30.10;99.90;;;;;;6152227;23;20032;-75
2023/08/25 09:34:16;;;;;;;16.67;8.20;;;30.10;99.90;;;;;;6126193;23;20472;-75
2023/08/25 09:36:54;;;;;;;18.38;8.27;;;30.30;99.90;;;;;;6151558;23;20068;-76
2023/08/25 09:39:21;;;;;;;10.50;7.72;;;30.30;99.90;;;;;;6148745;23;20064;-76
2023/08/25 09:41:48;;;;;;;18.13;8.43;;;30.30;99.90;;;;;;6150128;23;20069;-76
2023/08/25 09:44:18;;;;;;;16.17;8.23;;;30.30;99.90;;;;;;6149215;23;20158;-76
2023/08/25 09:46:45;;;;;;;9.15;7.18;;;30.30;99.90;;;;;;6148940;23;20005;-76
2023/08/25 09:49:13;;;;;;;14.23;7.82;;;30.30;99.90;;;;;;6149764;23;20457;-75
2023/08/25 09:51:43;;;;;;;11.15;8.18;;;30.40;99.90;;;;;;6149018;23;20002;-76
2023/08/25 09:54:15;;;;;;;15.00;7.10;;;30.50;99.40;;;;;;6149537;23;20449;-77
2023/08/25 09:56:46;;;;;;;15.43;7.65;;;30.50;99.90;;;;;;6152712;23;20374;-76
2023/08/25 09:59:13;;;;;;;10.00;8.40;;;30.60;99.90;;;;;;6152301;23;20085;-76
2023/08/25 10:01:42;;;;;;;12.75;7.57;;;30.80;99.90;;;;;;6151170;23;20367;-74
2023/08/25 10:04:08;;;;;;;15.07;7.78;;;31.00;99.90;;;;;;6151954;23;20008;-74
2023/08/25 10:06:37;;;;;;;9.85;7.03;;;31.00;99.90;;;;;;6125379;23;19994;-76
2023/08/25 10:09:04;;;;;;;12.40;8.00;;;31.10;99.90;;;;;;6150992;23;20036;-75
2023/08/25 10:11:37;;;;;;;11.85;7.72;;;31.10;99.90;;;;;;6152482;23;20005;-75
2023/08/25 10:14:07;;;;;;;8.32;7.53;;;31.10;99.90;;;;;;6129750;23;20005;-75
2023/08/25 10:16:50;;;;;;;10.77;7.05;;;31.10;99.90;;;;;;6155798;23;20005;-75
2023/08/25 10:19:23;;;;;;;8.23;6.78;;;31.10;99.90;;;;;;6155716;23;20005;-74
2023/08/25 10:21:51;;;;;;;9.52;7.68;;;31.10;99.90;;;;;;6155787;23;20076;-75
2023/08/25 10:24:22;;;;;;;16.25;8.63;;;31.10;99.90;;;;;;6155702;23;20001;-74
2023/08/25 10:26:50;;;;;;;12.15;8.05;;;31.30;99.20;;;;;;6155707;23;20001;-75
2023/08/25 10:29:18;;;;;;;11.15;8.48;;;31.50;98.80;;;;;;6155626;23;20001;-74
2023/08/25 10:31:59;;;;;;;10.73;9.18;;;31.50;99.00;;;;;;6155335;23;20005;-75
2023/08/25 10:34:42;;;;;;;13.73;9.30;;;31.60;99.00;;;;;;6129278;23;20009;-75
2023/08/25 10:37:30;;;;;;;13.38;8.43;;;31.70;99.30;;;;;;6155826;23;20426;-74
2023/08/25 10:40:06;;;;;;;13.65;9.05;;;31.70;99.90;;;;;;6128332;23;20020;-74
2023/08/25 10:42:33;;;;;;;19.25;9.00;;;31.70;99.80;;;;;;6155399;23;20029;-76
2023/08/25 10:45:10;;;;;;;18.60;10.07;;;31.80;98.80;;;;;;6150713;23;20010;-75
2023/08/25 10:47:46;;;;;;;10.73;8.05;;;31.80;97.70;;;;;;6148576;23;20377;-75
2023/08/25 10:50:13;;;;;;;15.13;8.85;;;31.90;99.00;;;;;;6148430;23;20059;-75
2023/08/25 10:52:45;;;;;;;15.15;9.55;;;32.00;98.60;;;;;;6149821;23;20042;-75
2023/08/25 10:55:29;;;;;;;13.30;10.60;;;32.10;97.30;;;;;;6149760;23;20005;-75
2023/08/25 10:58:03;;;;;;;24.60;9.27;;;32.00;97.00;;;;;;6149759;23;20006;-75
2023/08/25 11:00:30;;;;;;;10.00;8.05;;;32.20;97.70;;;;;;6121290;23;20393;-75
2023/08/25 11:02:57;;;;;;;13.80;8.68;;;32.30;97.90;;;;;;6146743;23;20005;-74
2023/08/25 11:05:30;;;;;;;11.65;7.97;;;32.30;97.70;;;;;;6150173;23;20008;-75
2023/08/25 11:07:57;;;;;;;8.88;8.07;;;32.40;98.20;;;;;;6153040;23;20002;-76
2023/08/25 11:10:23;;;;;;;11.65;8.20;;;32.40;98.40;;;;;;6152457;23;20500;-74
2023/08/25 11:12:56;;;;;;;12.63;8.77;;;32.40;99.20;;;;;;6152080;23;20009;-74
2023/08/25 11:15:25;;;;;;;13.95;8.18;;;32.50;98.60;;;;;;6153337;23;20025;-75
2023/08/25 11:17:50;;;;;;;16.17;8.27;;;32.50;98.30;;;;;;6154177;23;20092;-74
2023/08/25 11:20:16;;;;;;;11.93;9.02;;;32.50;97.60;;;;;;6153800;23;20033;-75
2023/08/25 11:22:57;;;;;;;10.80;8.00;;;32.50;97.30;;;;;;6128120;23;20029;-75
2023/08/25 11:25:24;;;;;;;12.48;8.60;;;32.60;97.60;;;;;;6153863;23;20105;-75
2023/08/25 11:27:51;;;;;;;11.82;7.85;;;32.70;97.60;;;;;;6154259;23;19997;-75
2023/08/25 11:30:17;;;;;;;10.18;7.68;;;32.90;96.80;;;;;;6153787;23;20026;-76
2023/08/25 11:32:49;;;;;;;15.30;8.05;;;32.90;97.30;;;;;;6126966;23;20005;-75
2023/08/25 11:35:18;;;;;;;10.15;8.07;;;32.90;97.10;;;;;;6127662;23;20006;-75
2023/08/25 11:37:44;;;;;;;12.13;7.63;;;33.00;96.80;;;;;;6154130;23;20005;-75
2023/08/25 11:40:12;;;;;;;10.57;8.10;;;33.20;95.70;;;;;;6153559;23;20005;-75
2023/08/25 11:42:40;;;;;;;14.68;7.50;;;33.20;94.50;;;;;;6154021;23;20009;-75
2023/08/25 11:45:12;;;;;;;8.80;7.90;;;33.40;94.60;;;;;;6127753;23;20025;-75
2023/08/25 11:47:41;;;;;;;8.10;7.30;;;33.50;93.70;;;;;;6153918;23;20052;-75
2023/08/25 11:50:07;;;;;;;11.98;7.38;;;33.50;94.10;;;;;;6127503;23;20005;-75
2023/08/25 11:52:36;;;;;;;8.50;7.47;;;33.60;93.30;;;;;;6153507;23;20064;-75
2023/08/25 11:55:02;;;;;;;10.70;7.97;;;33.60;93.10;;;;;;6153806;23;20076;-75
2023/08/25 11:57:35;;;;;;;14.32;7.60;;;33.60;93.00;;;;;;6152387;23;20009;-75
2023/08/25 12:00:03;;;;;;;12.80;7.43;;;33.70;91.80;;;;;;6152962;23;20144;-75
2023/08/25 12:02:29;;;;;;;7.72;7.03;;;33.70;91.70;;;;;;6153647;23;20560;-75
2023/08/25 12:04:59;;;;;;;14.65;7.60;;;33.70;92.10;;;;;;6153573;23;19997;-75
2023/08/25 12:07:26;;;;;;;11.13;7.38;;;33.70;92.40;;;;;;6153828;23;19998;-75
2023/08/25 12:09:57;;;;;;;8.90;8.02;;;33.70;91.40;;;;;;6127447;23;20369;-75
2023/08/25 12:12:23;;;;;;;8.15;7.35;;;33.80;91.90;;;;;;6127488;23;20085;-75
2023/08/25 12:14:53;;;;;;;9.00;7.75;;;33.90;93.40;;;;;;6153675;23;20315;-75
2023/08/25 12:17:27;;;;;;;12.63;7.88;;;34.00;92.70;;;;;;6127453;23;20009;-75
2023/08/25 12:19:54;;;;;;;10.82;7.63;;;34.10;92.70;;;;;;6153430;23;20044;-75
2023/08/25 12:22:23;;;;;;;10.20;7.90;;;34.10;91.40;;;;;;6153654;23;20383;-75
2023/08/25 12:24:49;;;;;;;18.65;8.93;;;34.20;91.70;;;;;;6153326;23;20076;-75
2023/08/25 12:27:17;;;;;;;11.50;7.45;;;34.20;91.10;;;;;;6127678;23;20006;-75
2023/08/25 12:29:43;;;;;;;13.18;8.02;;;34.20;91.10;;;;;;6154482;23;20084;-75
2023/08/25 12:32:09;;;;;;;14.95;9.38;;;34.30;92.40;;;;;;6149483;23;20006;-75
2023/08/25 12:34:35;;;;;;;15.70;9.00;;;34.30;91.10;;;;;;6151198;23;19998;-76
2023/08/25 12:37:03;;;;;;;9.15;8.23;;;34.40;91.80;;;;;;6151468;23;20434;-75
2023/08/25 12:39:29;;;;;;;8.88;7.97;;;34.40;92.40;;;;;;6152276;23;20065;-75
2023/08/25 12:41:55;;;;;;;8.73;7.97;;;34.40;90.60;;;;;;6150532;23;20001;-75